Time;durP1;ratioP1;P1;durP2;ratioP2;P2;SDS_P1;SDS_P2;PMS_P1;PMS_P2;Temp;Humidity;BMP_temperature;BMP_pressure;BME280_temperature;BME280_humidity;BME280_pressure;Samples;Min_cycle;Max_cycle;Signal;HPM_P1;HPM_P2
2021/12/04 00:02:27;;;;;;;1.33;1.30;;;;;;;5.13;69.38;94378.75;5094146;28;20196;-67
2021/12/04 00:04:55;;;;;;;1.45;1.35;;;;;;;5.15;69.02;94379.19;5095238;28;20239;-67
2021/12/04 00:07:23;;;;;;;1.60;1.50;;;;;;;5.13;69.75;94375.22;5094348;28;20224;-67
2021/12/04 00:09:51;;;;;;;1.50;1.40;;;;;;;5.10;70.26;94373.13;5095263;28;20233;-67
2021/12/04 00:12:19;;;;;;;1.70;1.60;;;;;;;5.06;69.25;94371.06;5095383;28;20176;-67
2021/12/04 00:14:46;;;;;;;1.50;1.40;;;;;;;5.01;70.01;94365.81;5094431;28;20185;-67
2021/12/04 00:17:13;;;;;;;1.40;1.30;;;;;;;5.02;70.03;94363.88;5094463;28;20285;-67
2021/12/04 00:19:41;;;;;;;1.48;1.40;;;;;;;4.98;69.71;94369.22;5095415;28;20188;-67
2021/12/04 00:22:09;;;;;;;1.40;1.40;;;;;;;5.03;70.41;94374.47;5095038;28;20185;-67
2021/12/04 00:24:36;;;;;;;1.42;1.40;;;;;;;5.00;69.84;94375.13;5094518;28;20215;-67
2021/12/04 00:27:04;;;;;;;1.63;1.52;;;;;;;5.03;69.89;94371.72;5094883;28;20180;-68
2021/12/04 00:29:30;;;;;;;1.63;1.52;;;;;;;5.07;69.86;94377.34;5094247;28;20202;-68
2021/12/04 00:32:00;;;;;;;1.30;1.30;;;;;;;5.03;69.58;94370.94;5094262;28;20291;-67
2021/12/04 00:34:29;;;;;;;1.40;1.40;;;;;;;5.00;69.87;94372.41;5094266;28;20290;-66
2021/12/04 00:37:10;;;;;;;1.27;1.27;;;;;;;5.05;70.57;94369.47;5094870;28;20188;-68
2021/12/04 00:50:33;;;;;;;1.80;1.70;;;;;;;5.04;69.80;94369.78;5098329;28;20671;-69
2021/12/04 00:53:02;;;;;;;1.73;1.63;;;;;;;5.05;69.37;94372.22;5098132;28;20196;-69
2021/12/04 00:55:29;;;;;;;1.55;1.45;;;;;;;4.97;69.21;94372.25;5099042;28;20193;-69
2021/12/04 00:57:55;;;;;;;1.70;1.60;;;;;;;4.96;69.34;94368.75;5099112;28;20180;-69
2021/12/04 01:00:22;;;;;;;1.65;1.60;;;;;;;4.89;68.64;94364.94;5098907;28;20188;-69
2021/12/04 01:02:49;;;;;;;1.75;1.65;;;;;;;4.88;69.27;94363.34;5098006;28;20253;-69
2021/12/04 01:05:16;;;;;;;1.90;1.80;;;;;;;4.90;70.04;94361.06;5098790;28;20208;-69
2021/12/04 01:07:43;;;;;;;1.83;1.73;;;;;;;4.91;69.64;94352.56;5099109;28;20197;-69
2021/12/04 01:10:11;;;;;;;2.10;2.00;;;;;;;4.95;69.50;94348.03;5098822;28;20188;-69
2021/12/04 01:12:38;;;;;;;1.80;1.70;;;;;;;4.92;68.61;94345.94;5098658;28;20207;-69
2021/12/04 01:15:06;;;;;;;2.25;2.15;;;;;;;4.90;68.09;94336.47;5097708;28;20617;-69
2021/12/04 01:17:33;;;;;;;1.98;1.88;;;;;;;4.87;68.25;94332.50;5098404;28;20184;-68
2021/12/04 01:20:00;;;;;;;2.22;2.08;;;;;;;4.87;68.09;94327.03;5098168;28;20543;-69
2021/12/04 01:22:27;;;;;;;2.67;2.20;;;;;;;4.86;68.18;94333.63;5097500;28;20235;-69
2021/12/04 01:24:54;;;;;;;2.30;2.20;;;;;;;4.87;68.46;94328.97;5097521;28;20229;-69
2021/12/04 01:27:23;;;;;;;2.40;2.30;;;;;;;4.86;68.09;94324.63;5098486;28;20195;-69
2021/12/04 01:29:49;;;;;;;3.10;2.80;;;;;;;4.85;69.06;94318.38;5098597;28;20563;-69
2021/12/04 01:32:16;;;;;;;2.60;2.40;;;;;;;4.84;68.66;94308.56;5097366;28;20193;-69
2021/12/04 01:34:43;;;;;;;2.63;2.53;;;;;;;4.82;68.42;94313.56;5097127;28;20207;-68
2021/12/04 01:37:10;;;;;;;3.00;2.80;;;;;;;4.75;68.68;94319.56;5098394;28;20254;-68
2021/12/04 01:39:37;;;;;;;3.20;3.00;;;;;;;4.74;68.73;94315.25;5098551;28;20193;-68
2021/12/04 01:42:04;;;;;;;2.90;2.70;;;;;;;4.75;68.39;94313.31;5098293;28;20257;-68
2021/12/04 01:44:32;;;;;;;3.10;2.80;;;;;;;4.73;68.64;94318.31;5098257;28;20193;-68
2021/12/04 01:47:00;;;;;;;3.25;3.05;;;;;;;4.72;68.51;94322.97;5097121;28;20189;-68
2021/12/04 01:49:27;;;;;;;3.22;3.03;;;;;;;4.72;68.27;94322.16;5096992;28;20254;-68
2021/12/04 01:51:54;;;;;;;3.20;3.00;;;;;;;4.74;68.02;94315.25;5096845;28;20233;-68
2021/12/04 01:54:22;;;;;;;3.47;3.17;;;;;;;4.64;68.70;94315.63;5097976;28;20192;-68
2021/12/04 01:56:49;;;;;;;3.58;3.38;;;;;;;4.61;68.17;94327.22;5097291;28;20191;-68
2021/12/04 01:59:15;;;;;;;3.60;3.30;;;;;;;4.62;68.18;94323.38;5097837;28;20199;-68
2021/12/04 02:01:44;;;;;;;3.67;3.47;;;;;;;4.65;67.95;94328.19;5097736;28;20203;-68
2021/12/04 02:04:10;;;;;;;3.88;3.58;;;;;;;4.67;67.95;94331.38;5096863;28;20211;-68
2021/12/04 02:06:38;;;;;;;3.83;3.53;;;;;;;4.68;68.10;94326.69;5097663;28;20208;-68
2021/12/04 02:09:05;;;;;;;3.30;3.10;;;;;;;4.66;67.76;94326.25;5097493;28;20189;-68
2021/12/04 02:11:31;;;;;;;3.40;3.20;;;;;;;4.64;67.92;94326.56;5097261;28;20196;-68
2021/12/04 02:13:58;;;;;;;3.50;3.30;;;;;;;4.67;68.13;94338.75;5097083;28;20211;-68
2021/12/04 02:16:25;;;;;;;3.90;3.60;;;;;;;4.64;67.92;94333.97;5096332;28;20575;-68
2021/12/04 02:18:53;;;;;;;3.70;3.50;;;;;;;4.63;68.97;94332.38;5097335;28;20192;-68
2021/12/04 02:21:22;;;;;;;3.78;3.47;;;;;;;4.62;68.46;94330.78;5097262;28;20189;-68
2021/12/04 02:23:48;;;;;;;3.50;3.30;;;;;;;4.64;68.88;94317.56;5096866;28;20224;-68
2021/12/04 02:26:15;;;;;;;3.10;2.90;;;;;;;4.64;68.22;94309.38;5097270;28;20210;-68
2021/12/04 02:28:44;;;;;;;3.15;2.95;;;;;;;4.65;68.43;94322.72;5096480;28;20203;-68
2021/12/04 02:31:10;;;;;;;3.45;3.25;;;;;;;4.62;68.38;94317.13;5097228;28;20199;-69
2021/12/04 02:33:37;;;;;;;3.10;2.90;;;;;;;4.61;69.10;94316.31;5097103;28;20188;-69
2021/12/04 02:36:06;;;;;;;3.47;3.25;;;;;;;4.63;69.38;94315.97;5096563;28;20189;-69
2021/12/04 02:38:35;;;;;;;3.42;3.22;;;;;;;4.62;69.82;94315.19;5096736;28;20220;-69
2021/12/04 02:41:02;;;;;;;3.35;3.15;;;;;;;4.57;69.27;94304.44;5096104;28;20287;-69
2021/12/04 02:43:33;;;;;;;3.13;2.92;;;;;;;4.53;70.28;94309.78;5096492;28;20200;-69
2021/12/04 02:45:59;;;;;;;3.40;3.20;;;;;;;4.49;70.68;94308.06;5095881;28;20212;-69
2021/12/04 02:48:26;;;;;;;3.30;3.10;;;;;;;4.53;71.01;94326.16;5096930;28;20195;-69
2021/12/04 02:50:53;;;;;;;3.40;3.20;;;;;;;4.49;71.06;94322.50;5095877;28;20204;-69
2021/12/04 02:53:20;;;;;;;3.60;3.40;;;;;;;4.53;71.94;94312.50;5096507;28;20195;-69
2021/12/04 02:55:50;;;;;;;3.60;3.40;;;;;;;4.49;71.69;94318.97;5096441;28;20211;-69
2021/12/04 02:58:17;;;;;;;3.35;3.15;;;;;;;4.47;71.66;94304.88;5096758;28;20188;-69
2021/12/04 03:00:48;;;;;;;3.35;3.10;;;;;;;4.46;71.17;94304.03;5096509;28;20200;-69
2021/12/04 03:03:17;;;;;;;3.83;3.63;;;;;;;4.50;72.39;94302.28;5096306;28;20207;-69
2021/12/04 03:05:46;;;;;;;3.65;3.35;;;;;;;4.47;71.90;94294.75;5096471;28;20243;-69
2021/12/04 03:08:12;;;;;;;3.72;3.42;;;;;;;4.47;72.17;94302.94;5095735;28;20196;-69
2021/12/04 03:10:39;;;;;;;3.42;3.22;;;;;;;4.46;72.22;94311.44;5095466;28;20197;-69
2021/12/04 03:13:09;;;;;;;3.25;3.05;;;;;;;4.46;71.98;94304.03;5096420;28;20191;-69
2021/12/04 03:15:38;;;;;;;3.13;2.92;;;;;;;4.39;72.04;94311.97;5096073;28;20204;-69
2021/12/04 03:18:04;;;;;;;3.60;3.40;;;;;;;4.39;71.76;94308.44;5095345;28;20303;-69
2021/12/04 03:20:32;;;;;;;3.47;3.28;;;;;;;4.43;71.67;94315.66;5096227;28;20185;-69
2021/12/04 03:23:02;;;;;;;3.70;3.50;;;;;;;4.44;71.45;94305.53;5095868;28;20255;-69
2021/12/04 03:25:29;;;;;;;3.53;3.33;;;;;;;4.45;72.30;94302.44;5096058;28;20275;-69
2021/12/04 03:27:56;;;;;;;3.75;3.45;;;;;;;4.43;71.99;94306.63;5094966;28;20628;-69
2021/12/04 03:30:36;;;;;;;3.60;3.40;;;;;;;4.43;72.12;94312.94;5095341;28;20204;-69
2021/12/04 03:41:15;;;;;;;4.00;3.70;;;;;;;4.35;71.32;94316.50;5095609;28;20177;-69
2021/12/04 03:43:43;;;;;;;3.38;3.17;;;;;;;4.34;71.91;94325.81;5094565;28;20203;-69
2021/12/04 03:46:15;;;;;;;3.85;3.65;;;;;;;4.29;71.32;94326.03;5095187;28;20230;-69
2021/12/04 03:48:52;;;;;;;4.10;3.90;;;;;;;4.25;71.44;94323.16;5094794;28;20193;-67
2021/12/04 03:51:20;;;;;;;4.40;4.10;;;;;;;4.21;71.52;94319.50;5095717;28;20180;-67
2021/12/04 03:53:46;;;;;;;4.28;3.97;;;;;;;4.22;71.57;94320.28;5095007;28;20206;-67
2021/12/04 03:56:15;;;;;;;4.15;3.85;;;;;;;4.21;72.06;94322.22;5095076;28;20196;-68
2021/12/04 03:58:42;;;;;;;4.40;4.10;;;;;;;4.16;72.01;94329.78;5094770;28;20218;-67
2021/12/04 04:01:09;;;;;;;4.13;3.92;;;;;;;4.18;72.08;94333.81;5094684;28;20196;-68
2021/12/04 04:03:37;;;;;;;4.63;4.32;;;;;;;4.20;71.85;94334.25;5095254;28;20195;-67
2021/12/04 04:06:04;;;;;;;4.88;4.53;;;;;;;4.24;71.83;94337.13;5094923;28;20560;-67
2021/12/04 04:08:31;;;;;;;4.75;4.45;;;;;;;4.23;71.74;94339.06;5095355;28;20184;-68
2021/12/04 04:10:58;;;;;;;4.35;4.05;;;;;;;4.24;71.18;94340.66;5094163;28;20208;-67
2021/12/04 04:13:25;;;;;;;4.50;4.20;;;;;;;4.20;71.53;94333.47;5095441;28;20188;-68
2021/12/04 04:15:52;;;;;;;4.90;4.50;;;;;;;4.16;71.67;94336.03;5095240;28;20173;-68
2021/12/04 04:18:19;;;;;;;4.85;4.55;;;;;;;4.16;71.48;94332.53;5094555;28;20200;-67
2021/12/04 04:20:47;;;;;;;5.25;4.95;;;;;;;4.12;71.81;94335.13;5095292;28;20507;-67
2021/12/04 04:25:58;;;;;;;4.78;4.47;;;;;;;4.09;71.49;94333.84;3950342;28;20232;-67
2021/12/04 04:28:25;;;;;;;5.20;4.90;;;;;;;4.08;71.23;94334.97;5095083;28;20177;-67
2021/12/04 04:30:52;;;;;;;5.20;4.90;;;;;;;4.09;71.16;94347.47;5094316;28;20204;-67
2021/12/04 04:33:18;;;;;;;4.75;4.40;;;;;;;4.03;70.41;94348.81;5093902;28;20662;-67
2021/12/04 04:35:58;;;;;;;5.40;5.00;;;;;;;4.04;70.73;94346.88;5094474;28;20211;-67
2021/12/04 04:38:34;;;;;;;5.70;5.30;;;;;;;4.07;71.14;94357.16;5094872;28;20237;-67
2021/12/04 05:00:27;;;;;;;4.90;4.60;;;;;;;4.14;69.79;94367.53;5091083;28;20234;-67
2021/12/04 05:11:14;;;;;;;4.82;4.53;;;;;;;4.03;69.29;94372.53;5094519;28;20209;-67
2021/12/04 05:13:42;;;;;;;5.90;5.45;;;;;;;4.04;69.74;94369.50;5093899;28;20206;-68
2021/12/04 05:16:13;;;;;;;5.40;5.00;;;;;;;4.04;69.42;94368.72;5094119;28;20188;-67
2021/12/04 05:18:44;;;;;;;5.85;5.35;;;;;;;4.07;69.84;94365.34;5093996;28;20266;-67
2021/12/04 05:21:13;;;;;;;5.95;5.55;;;;;;;4.10;69.53;94364.66;5094014;28;20684;-67
2021/12/04 05:23:43;;;;;;;5.28;4.88;;;;;;;4.08;69.96;94365.00;5093744;28;20203;-67
2021/12/04 05:26:13;;;;;;;5.00;4.60;;;;;;;4.12;69.71;94367.88;5094990;28;20243;-67
2021/12/04 05:28:40;;;;;;;5.90;5.40;;;;;;;4.13;69.90;94376.84;5093410;28;20203;-67
2021/12/04 05:31:07;;;;;;;5.28;4.88;;;;;;;4.12;70.48;94367.88;5095107;28;20193;-67
2021/12/04 05:33:34;;;;;;;5.68;5.28;;;;;;;4.17;70.34;94377.78;5097143;28;20207;-67
2021/12/04 05:36:01;;;;;;;5.63;5.22;;;;;;;4.14;69.63;94359.34;5097285;28;20196;-67
2021/12/04 05:38:28;;;;;;;6.13;5.63;;;;;;;4.15;70.13;94358.22;5097240;28;20207;-67
2021/12/04 05:40:56;;;;;;;6.32;5.90;;;;;;;4.12;69.52;94356.16;5098148;28;20180;-67
2021/12/04 05:43:23;;;;;;;5.88;5.47;;;;;;;4.09;69.76;94361.13;5097245;28;20197;-67
2021/12/04 05:45:56;;;;;;;6.28;5.78;;;;;;;4.09;70.10;94360.31;5097745;28;20231;-67
2021/12/04 05:48:30;;;;;;;6.25;5.75;;;;;;;4.08;70.50;94369.66;5097275;28;20220;-67
2021/12/04 05:53:56;;;;;;;5.55;5.05;;;;;;;4.05;70.48;94364.84;5097190;28;20226;-67
2021/12/04 05:56:25;;;;;;;5.78;5.28;;;;;;;4.04;70.84;94371.44;5097934;28;20195;-67
2021/12/04 05:58:52;;;;;;;6.30;5.80;;;;;;;4.01;70.83;94375.63;5097774;28;20188;-68
2021/12/04 06:01:21;;;;;;;5.80;5.40;;;;;;;4.00;70.65;94376.75;5097510;28;20226;-68
2021/12/04 06:03:48;;;;;;;6.68;6.07;;;;;;;4.02;70.81;94377.22;5096891;28;20205;-67
2021/12/04 06:06:15;;;;;;;6.63;6.05;;;;;;;4.04;71.09;94377.69;5097106;28;20716;-67
2021/12/04 06:08:42;;;;;;;6.03;5.53;;;;;;;4.08;71.51;94378.63;5097274;28;20188;-67
2021/12/04 06:11:09;;;;;;;6.63;6.13;;;;;;;4.10;70.52;94386.47;5097021;28;20200;-67
2021/12/04 06:13:37;;;;;;;6.97;6.38;;;;;;;4.12;70.42;94381.50;5097339;28;20185;-67
2021/12/04 06:16:04;;;;;;;6.72;6.22;;;;;;;4.11;69.92;94385.38;5096538;28;20204;-67
2021/12/04 06:18:32;;;;;;;6.80;6.30;;;;;;;4.11;70.01;94382.66;5098326;28;20197;-67
2021/12/04 06:23:44;;;;;;;6.70;6.20;;;;;;;4.05;69.76;94386.69;5097710;28;20198;-67
2021/12/04 06:26:11;;;;;;;6.70;6.20;;;;;;;4.04;69.73;94391.34;5097770;28;20232;-68
2021/12/04 06:28:39;;;;;;;8.20;7.50;;;;;;;4.04;69.44;94385.09;5096615;28;20202;-69
2021/12/04 06:31:07;;;;;;;7.47;6.88;;;;;;;4.00;68.96;94386.88;5096285;28;20214;-69
2021/12/04 06:33:34;;;;;;;7.55;6.95;;;;;;;3.99;70.04;94380.59;5097164;28;20193;-69
2021/12/04 06:36:01;;;;;;;9.80;9.00;;;;;;;4.02;69.78;94390.06;5096923;28;20232;-69
2021/12/04 06:38:28;;;;;;;9.43;8.20;;;;;;;4.03;69.69;94391.66;5097127;28;20200;-69
2021/12/04 06:40:56;;;;;;;8.13;7.47;;;;;;;4.01;69.57;94388.47;5096047;28;20206;-69
2021/12/04 06:43:23;;;;;;;7.63;6.93;;;;;;;3.99;70.00;94398.91;5096418;28;20207;-69
2021/12/04 06:45:57;;;;;;;7.75;7.13;;;;;;;4.04;69.65;94399.53;5096370;28;20210;-69
2021/12/04 06:48:27;;;;;;;7.85;7.22;;;;;;;4.08;70.04;94405.94;5096949;28;20184;-68
2021/12/04 06:50:57;;;;;;;8.00;7.30;;;;;;;4.09;69.73;94409.44;5095764;28;20196;-68
2021/12/04 06:53:27;;;;;;;8.60;7.80;;;;;;;4.15;69.47;94410.09;5096459;28;20617;-68
2021/12/04 06:55:56;;;;;;;8.10;7.40;;;;;;;4.16;69.64;94412.47;5095836;28;20204;-67
2021/12/04 06:58:23;;;;;;;8.73;8.00;;;;;;;4.23;69.75;94411.97;5096014;28;20204;-68
2021/12/04 07:00:53;;;;;;;8.32;7.68;;;;;;;4.26;69.38;94416.78;5096460;28;20215;-68
2021/12/04 07:03:20;;;;;;;7.22;6.63;;;;;;;4.24;69.34;94419.81;5096570;28;20200;-68
2021/12/04 07:05:48;;;;;;;7.43;6.82;;;;;;;4.24;69.21;94419.81;5095812;28;20196;-68
2021/12/04 07:08:15;;;;;;;7.45;6.75;;;;;;;4.21;68.96;94420.50;5096554;28;20212;-68
2021/12/04 07:10:43;;;;;;;8.00;7.30;;;;;;;4.24;69.42;94428.00;5096524;28;20199;-68
2021/12/04 07:13:10;;;;;;;7.60;7.00;;;;;;;4.26;69.00;94433.94;5095456;28;20538;-68
2021/12/04 07:15:37;;;;;;;7.53;6.93;;;;;;;4.28;69.25;94426.22;5096496;28;20191;-68
2021/12/04 07:18:05;;;;;;;7.45;6.85;;;;;;;4.30;69.05;94428.63;5096369;28;20206;-68
2021/12/04 07:20:32;;;;;;;7.43;6.82;;;;;;;4.32;68.99;94434.53;5095617;28;20274;-68
2021/12/04 07:23:00;;;;;;;8.30;7.50;;;;;;;4.38;68.57;94435.16;5095912;28;20196;-67
2021/12/04 07:25:27;;;;;;;8.30;7.60;;;;;;;4.33;68.08;94430.72;5095715;28;20255;-67
2021/12/04 07:27:53;;;;;;;8.80;8.10;;;;;;;4.32;68.34;94421.72;5096330;28;20200;-67
2021/12/04 07:30:21;;;;;;;9.40;8.60;;;;;;;4.33;68.18;94409.66;5095222;28;20540;-69
2021/12/04 07:32:48;;;;;;;8.25;7.57;;;;;;;4.27;68.22;94423.81;5094748;28;20200;-69
2021/12/04 07:35:17;;;;;;;8.13;7.53;;;;;;;4.25;68.28;94418.69;5095501;28;20198;-69
2021/12/04 07:37:44;;;;;;;8.38;7.68;;;;;;;4.30;68.55;94413.03;5095981;28;20195;-69
2021/12/04 07:40:12;;;;;;;8.10;7.50;;;;;;;4.29;67.96;94391.56;5094719;28;20629;-69
2021/12/04 07:42:39;;;;;;;8.75;8.05;;;;;;;4.27;67.95;94400.03;5095743;28;20172;-68
2021/12/04 07:45:07;;;;;;;8.57;7.97;;;;;;;4.31;68.45;94381.88;5095494;28;20184;-68
2021/12/04 07:47:34;;;;;;;8.45;7.75;;;;;;;4.41;68.80;94377.19;5095937;28;20204;-68
2021/12/04 07:50:01;;;;;;;8.70;8.00;;;;;;;4.49;68.89;94373.59;5094985;28;20662;-69
2021/12/04 07:52:29;;;;;;;7.63;7.03;;;;;;;4.50;67.68;94365.09;5094956;28;20211;-70
2021/12/04 07:54:56;;;;;;;8.55;7.85;;;;;;;4.51;67.72;94358.47;5094524;28;20204;-69
2021/12/04 07:57:25;;;;;;;8.60;7.88;;;;;;;4.61;68.75;94359.19;5095366;28;20550;-69
2021/12/04 07:59:51;;;;;;;7.68;7.00;;;;;;;4.71;68.30;94354.16;5094934;28;20232;-69
2021/12/04 08:02:18;;;;;;;8.35;7.65;;;;;;;4.74;67.68;94361.69;5094771;28;20216;-69
2021/12/04 08:04:45;;;;;;;8.32;7.72;;;;;;;4.78;67.80;94354.41;5094738;28;20204;-69
2021/12/04 08:07:12;;;;;;;9.95;9.05;;;;;;;4.82;67.46;94354.53;5095233;28;20524;-69
2021/12/04 08:09:40;;;;;;;10.63;9.73;;;;;;;4.79;66.73;94347.84;5094213;28;20196;-69
2021/12/04 08:12:10;;;;;;;10.48;9.68;;;;;;;4.85;68.09;94344.91;5094795;28;20539;-69
2021/12/04 08:14:36;;;;;;;9.45;8.75;;;;;;;4.89;67.46;94348.56;5094666;28;20249;-69
2021/12/04 08:17:03;;;;;;;8.30;7.60;;;;;;;4.95;67.46;94349.97;5094357;28;20196;-69
2021/12/04 08:19:30;;;;;;;8.70;7.97;;;;;;;4.97;67.27;94359.41;5094500;28;20206;-68
2021/12/04 08:21:57;;;;;;;8.27;7.60;;;;;;;4.97;66.28;94359.41;5095349;28;20188;-69
2021/12/04 08:24:24;;;;;;;8.07;7.45;;;;;;;4.94;67.06;94367.47;5095316;28;20184;-69
2021/12/04 08:26:52;;;;;;;7.38;6.82;;;;;;;4.91;67.62;94365.44;5094608;28;20684;-69
2021/12/04 08:29:19;;;;;;;7.07;6.47;;;;;;;4.89;66.87;94362.22;5095224;28;20192;-67
2021/12/04 08:31:47;;;;;;;8.43;7.72;;;;;;;4.88;67.01;94360.63;5094894;28;20196;-69
2021/12/04 08:34:14;;;;;;;8.32;7.63;;;;;;;4.91;67.63;94351.75;5095167;28;20196;-69
2021/12/04 08:36:41;;;;;;;8.20;7.50;;;;;;;4.94;67.08;94362.00;5095096;28;20180;-69
2021/12/04 08:39:09;;;;;;;8.63;7.93;;;;;;;4.94;67.09;94362.00;5095141;28;20207;-69
2021/12/04 08:41:36;;;;;;;9.27;8.48;;;;;;;4.95;67.47;94358.16;5094462;28;20196;-69
2021/12/04 08:44:05;;;;;;;8.57;7.88;;;;;;;4.98;67.90;94350.09;5094670;28;20215;-69
2021/12/04 08:46:34;;;;;;;9.27;8.48;;;;;;;5.06;67.15;94351.94;5094250;28;20211;-69
2021/12/04 08:49:01;;;;;;;9.57;8.77;;;;;;;5.08;67.68;94348.84;5094067;28;20261;-69
2021/12/04 08:51:29;;;;;;;8.60;7.90;;;;;;;5.10;67.42;94337.59;5094753;28;20287;-69
2021/12/04 08:53:56;;;;;;;9.65;8.80;;;;;;;5.20;67.68;94331.72;5095126;28;20268;-69
2021/12/04 08:56:23;;;;;;;8.38;7.78;;;;;;;5.24;67.38;94333.44;5095038;28;20199;-69
2021/12/04 08:58:50;;;;;;;9.23;8.35;;;;;;;5.28;67.20;94326.16;5094736;28;20179;-69
2021/12/04 09:01:24;;;;;;;8.77;8.07;;;;;;;5.34;68.31;94339.59;5094357;28;20196;-69
2021/12/04 09:03:53;;;;;;;8.95;8.15;;;;;;;5.38;66.80;94337.81;5094944;28;20185;-69
2021/12/04 09:06:21;;;;;;;8.52;7.82;;;;;;;5.41;68.01;94331.66;5096534;28;20200;-69
2021/12/04 09:08:48;;;;;;;6.75;6.18;;;;;;;5.40;66.30;94335.53;5097812;28;20212;-69
2021/12/04 09:11:18;;;;;;;7.93;7.28;;;;;;;5.40;67.32;94338.25;5098723;28;20189;-69
2021/12/04 09:13:47;;;;;;;6.82;6.28;;;;;;;5.38;66.37;94337.81;5097789;28;20203;-69
2021/12/04 09:16:15;;;;;;;7.55;6.95;;;;;;;5.38;66.45;94348.75;5098770;28;20196;-69
2021/12/04 09:18:43;;;;;;;7.97;7.20;;;;;;;5.40;67.10;94346.47;5098630;28;20220;-69
2021/12/04 09:21:11;;;;;;;7.50;6.90;;;;;;;5.44;67.88;94353.66;5097650;28;20202;-69
2021/12/04 09:23:40;;;;;;;8.48;7.78;;;;;;;5.42;67.87;94350.47;5099150;28;20238;-69
2021/12/04 09:26:12;;;;;;;8.40;7.70;;;;;;;5.43;67.53;94340.31;5098153;28;20243;-69
2021/12/04 09:28:45;;;;;;;13.70;12.50;;;;;;;5.40;67.90;94338.25;5097539;28;20257;-69
2021/12/04 09:34:19;;;;;;;8.75;7.88;;;;;;;5.27;66.99;94354.66;5097682;28;20196;-69
2021/12/04 10:21:38;;;;;;;10.82;9.88;;;;;;;5.37;69.46;94311.59;5097153;28;20180;-69
2021/12/04 10:24:34;;;;;;;12.82;11.63;;;;;;;5.38;68.88;94310.47;5096686;28;20319;-69
2021/12/04 10:32:36;;;;;;;11.20;10.13;;;;;;;5.45;69.27;94302.50;5097051;28;20173;-69
2021/12/04 10:35:08;;;;;;;10.02;9.07;;;;;;;5.46;69.07;94291.22;5097099;28;20241;-69
2021/12/04 10:37:37;;;;;;;9.35;8.55;;;;;;;5.46;69.02;94301.38;5097153;28;20185;-69
2021/12/04 10:40:09;;;;;;;7.78;7.07;;;;;;;5.46;69.19;94304.09;5096568;28;20201;-70
2021/12/04 10:42:42;;;;;;;8.27;7.57;;;;;;;5.48;69.57;94302.63;5097103;28;20181;-69
2021/12/04 10:45:09;;;;;;;8.00;7.30;;;;;;;5.50;69.17;94307.75;5096952;28;20237;-69
2021/12/04 10:47:36;;;;;;;7.47;6.78;;;;;;;5.52;68.93;94295.34;5096558;28;20204;-69
2021/12/04 10:50:16;;;;;;;9.85;8.95;;;;;;;5.53;68.84;94294.19;5096560;28;20196;-69
2021/12/04 10:52:51;;;;;;;10.95;9.88;;;;;;;5.53;69.15;94293.41;5096018;28;20208;-69
2021/12/04 10:55:25;;;;;;;10.70;9.80;;;;;;;5.56;69.58;94300.94;5096791;28;20184;-69
2021/12/04 11:01:03;;;;;;;12.43;11.32;;;;;;;5.61;69.73;94297.16;5095643;28;20339;-69
2021/12/04 11:03:40;;;;;;;9.70;8.80;;;;;;;5.60;68.96;94306.53;5097184;28;20196;-69
2021/12/04 11:37:48;;;;;;;6.90;6.30;;;;;;;5.78;68.97;94296.97;5078996;28;20181;-69
2021/12/04 11:40:32;;;;;;;6.30;5.70;;;;;;;5.77;68.30;94290.69;5077125;28;20185;-69
2021/12/04 11:43:04;;;;;;;7.18;6.57;;;;;;;5.78;68.44;94292.28;5075464;28;20205;-69
2021/12/04 11:45:44;;;;;;;7.32;6.63;;;;;;;5.78;68.55;94291.50;5075483;28;20205;-69
2021/12/04 11:48:11;;;;;;;6.82;6.20;;;;;;;5.77;68.65;94279.75;5075581;28;20205;-69
2021/12/04 11:50:39;;;;;;;6.88;6.28;;;;;;;5.79;68.65;94290.34;5075546;28;20524;-69
2021/12/04 11:53:08;;;;;;;6.57;5.97;;;;;;;5.79;68.23;94282.94;5074507;28;20192;-69
2021/12/04 11:55:39;;;;;;;7.50;6.80;;;;;;;5.79;68.83;94282.13;5075502;28;20270;-69
2021/12/04 11:58:17;;;;;;;7.75;7.05;;;;;;;5.80;69.14;94284.53;5074610;28;20189;-69
2021/12/04 12:00:45;;;;;;;8.05;7.43;;;;;;;5.80;68.77;94279.03;5075354;28;20254;-69
2021/12/04 12:03:15;;;;;;;8.98;8.18;;;;;;;5.84;68.73;94278.38;5075068;28;20204;-68
2021/12/04 12:05:45;;;;;;;8.50;7.70;;;;;;;5.86;68.90;94267.88;5075010;28;20296;-69
2021/12/04 12:08:22;;;;;;;8.02;7.22;;;;;;;5.89;68.26;94273.47;5075255;28;20212;-69
2021/12/04 12:10:51;;;;;;;8.35;7.55;;;;;;;5.89;69.16;94275.41;5074329;28;20197;-69
2021/12/04 12:13:24;;;;;;;7.07;6.55;;;;;;;5.87;68.96;94278.47;5075156;28;20243;-69
2021/12/04 12:16:01;;;;;;;8.18;7.38;;;;;;;5.87;69.20;94277.69;5074060;28;20204;-69
2021/12/04 12:18:28;;;;;;;8.48;7.68;;;;;;;5.88;69.75;94282.00;5075220;28;20193;-69
2021/12/04 12:20:58;;;;;;;8.07;7.47;;;;;;;5.86;68.97;94282.38;5074939;28;20518;-69
2021/12/04 12:23:27;;;;;;;8.27;7.68;;;;;;;5.86;69.35;94282.38;5075892;28;20201;-68
2021/12/04 12:26:14;;;;;;;9.15;8.35;;;;;;;5.85;68.66;94286.25;5074730;28;20693;-67
2021/12/04 12:31:53;;;;;;;8.85;8.15;;;;;;;5.80;68.60;94292.72;5095238;28;20228;-67
2021/12/04 12:37:18;;;;;;;10.80;9.90;;;;;;;5.81;69.60;94293.56;5094342;28;20204;-67
2021/12/04 12:39:53;;;;;;;9.38;8.50;;;;;;;5.81;68.37;94282.59;5096548;28;20207;-67
2021/12/04 12:42:28;;;;;;;10.07;9.07;;;;;;;5.76;69.09;94293.75;5099208;28;20195;-67
2021/12/04 12:44:55;;;;;;;10.35;9.45;;;;;;;5.80;69.31;94287.25;5098394;28;20187;-67
2021/12/04 12:47:23;;;;;;;10.52;9.63;;;;;;;5.83;68.92;94285.00;5099382;28;20492;-68
2021/12/04 12:49:50;;;;;;;9.88;9.07;;;;;;;5.82;68.74;94280.66;5098263;28;20220;-68
2021/12/04 12:52:20;;;;;;;9.93;9.13;;;;;;;5.80;68.38;94284.53;5098265;28;20202;-68
2021/12/04 12:54:52;;;;;;;10.63;9.63;;;;;;;5.80;68.78;94281.78;5098616;28;20192;-68
2021/12/04 12:57:22;;;;;;;10.30;9.45;;;;;;;5.81;68.80;94288.09;5100055;28;20196;-68
2021/12/04 13:11:36;;;;;;;11.82;10.68;;;;;;;5.82;68.85;94294.34;5099251;28;20254;-68
2021/12/04 13:13:54;;;;;;;7.80;7.10;;;;;;;5.86;69.06;94300.72;5098085;28;20204;-68
2021/12/04 13:16:23;;;;;;;7.57;6.88;;;;;;;5.86;68.52;94301.53;5098239;28;20204;-68
2021/12/04 13:18:56;;;;;;;7.20;6.60;;;;;;;5.82;68.88;94297.09;5097787;28;20663;-69
2021/12/04 13:21:24;;;;;;;6.30;5.80;;;;;;;5.75;68.93;94303.91;5097909;28;20196;-68
2021/12/04 13:23:54;;;;;;;6.80;6.20;;;;;;;5.71;68.71;94303.00;5097656;28;20228;-69
2021/12/04 13:26:26;;;;;;;7.80;7.05;;;;;;;5.71;68.86;94303.00;5097946;28;20180;-69
2021/12/04 13:28:53;;;;;;;8.10;7.13;;;;;;;5.71;68.90;94303.00;5098097;28;20216;-68
2021/12/04 13:31:21;;;;;;;8.30;7.50;;;;;;;5.70;68.88;94298.69;5098167;28;20261;-68
2021/12/04 13:33:50;;;;;;;7.90;7.22;;;;;;;5.73;69.13;94299.91;5098635;28;20200;-68
2021/12/04 13:36:22;;;;;;;8.07;7.38;;;;;;;5.73;69.32;94291.69;5098988;28;20203;-68
2021/12/04 13:38:52;;;;;;;9.40;8.50;;;;;;;5.76;69.22;94297.28;5097312;28;20211;-69
2021/12/04 13:41:19;;;;;;;10.75;9.85;;;;;;;5.80;68.61;94297.41;5097968;28;20187;-69
2021/12/04 13:43:51;;;;;;;11.23;10.10;;;;;;;5.78;68.90;94294.22;5098170;28;20189;-68
2021/12/04 13:46:18;;;;;;;12.75;11.52;;;;;;;5.77;69.40;94304.38;5097952;28;20172;-68
2021/12/04 13:48:44;;;;;;;14.95;13.55;;;;;;;5.77;69.07;94296.19;5098389;28;20214;-68
2021/12/04 13:51:12;;;;;;;14.45;13.05;;;;;;;5.79;68.89;94293.09;5096396;28;20199;-69
2021/12/04 13:53:42;;;;;;;13.40;12.20;;;;;;;5.82;69.23;94291.59;5097010;28;20210;-69
2021/12/04 13:56:11;;;;;;;13.77;12.45;;;;;;;5.86;68.93;94295.25;5097983;28;20197;-69
2021/12/04 13:58:45;;;;;;;13.43;12.20;;;;;;;5.84;68.87;94292.84;5097739;28;20177;-69
2021/12/04 14:01:12;;;;;;;16.10;14.30;;;;;;;5.84;69.39;94292.84;5100017;28;20546;-68
2021/12/04 14:03:39;;;;;;;17.55;15.73;;;;;;;5.88;69.32;94285.56;5097924;28;20204;-69
2021/12/04 14:06:10;;;;;;;16.45;14.55;;;;;;;5.89;69.38;94283.63;5098099;28;20195;-69
2021/12/04 14:08:37;;;;;;;14.95;13.02;;;;;;;5.90;68.99;94277.81;5097665;28;20215;-69
2021/12/04 14:11:05;;;;;;;13.40;12.15;;;;;;;5.89;68.64;94273.47;5096753;28;20207;-69
2021/12/04 14:13:32;;;;;;;12.13;11.00;;;;;;;5.91;68.91;94262.19;5097278;28;20180;-69
2021/12/04 14:15:59;;;;;;;16.98;15.27;;;;;;;5.93;68.88;94263.47;5096997;28;20196;-69
2021/12/04 14:18:28;;;;;;;16.13;14.57;;;;;;;5.93;69.04;94276.34;5096615;28;20287;-69
2021/12/04 14:21:00;;;;;;;14.30;13.00;;;;;;;5.93;69.04;94265.41;5096233;28;20201;-69
2021/12/04 14:23:28;;;;;;;12.95;11.65;;;;;;;5.91;68.83;94262.97;5096981;28;20287;-69
2021/12/04 14:25:54;;;;;;;14.18;12.85;;;;;;;5.93;68.60;94258.00;5096612;28;20203;-69
2021/12/04 14:28:25;;;;;;;13.77;12.48;;;;;;;5.95;68.92;94260.38;5095936;28;20239;-69